map of VCB home
VCB - Airport
Location
City:  Vacaville, California, United States
Name:Nut Tree Airport
ICAO:KVCB
IATA:VCB
FAA LID:VCB

Details
Type:Airport (Airfield)
Use:Public/Civil
Latitude:3822'42"N (38.378222)
Longitude:12157'40"W (-121.961193)
Datum:WGS 1984
Elevation:116 ft (35 m)
Variation:13.52E (WMM2015v2 magnetic declination)
-0.08 annual change
Runways:1
Longest:4700 × 75 ft (1433 × 23 m), paved

Time
Time Zone:UTC-8 (DST-7)
Local Time:

Weather
METAR:KVCB 041353Z AUTO 20012G20KT 10SM FEW012 BKN021 OVC026 09/08 A2948 RMK AO2 RAE18 SLP983 P0000 T00940083 $

Related Locations
Nearby:
Farthest:FTU: 11309 mi / 18201 km
Tolagnaro [Maurillac Airport (Fort Dauphin Airport)], MG

Find:

   beyond  
but within

Other Information
Maps:
NOTAMs:
Links:
Sources:

  
  • flag of United States
  • flag of California
  

Sectional Chart

Flight Planning
at skyvector.com

Satellite Image

Google Maps Satellite view

 

Copyright © 2004-2019 Karl L. Swartz. All rights reserved.
The Great Circle Mapper name and logo are trademarks of the Great Circle Mapper.
All other trademarks mentioned herein belong to their respective owners.
Please see credits for attibutions and further copyright information.

  Follow gcmap on Facebook Follow gcmap on Twitter GCmap on LinkedIn

hCard Microformat

Geo Microformat